Time;durP1;ratioP1;P1;durP2;ratioP2;P2;SDS_P1;SDS_P2;PMS_P1;PMS_P2;Temp;Humidity;BMP_temperature;BMP_pressure;BME280_temperature;BME280_humidity;BME280_pressure;Samples;Min_cycle;Max_cycle;Signal;HPM_P1;HPM_P2
2024/02/06 00:01:02;;;;;;;6.60;2.22;;;7.70;88.60;;;;;;5101677;28;20355;-71
2024/02/06 00:03:27;;;;;;;7.65;2.38;;;7.60;92.10;;;;;;5084929;28;20335;-71
2024/02/06 00:05:53;;;;;;;5.47;2.85;;;7.60;92.00;;;;;;5084960;28;20431;-71
2024/02/06 00:08:19;;;;;;;5.68;2.13;;;7.60;92.20;;;;;;5084996;28;20368;-71
2024/02/06 00:10:45;;;;;;;13.07;2.58;;;;;;;;;;5084539;28;20223;-71
2024/02/06 00:13:10;;;;;;;7.57;2.85;;;7.50;90.70;;;;;;5084681;28;20031;-69
2024/02/06 00:15:37;;;;;;;6.30;2.17;;;7.50;82.50;;;;;;5084718;28;20099;-71
2024/02/06 00:18:03;;;;;;;4.03;2.03;;;;;;;;;;5083403;28;20029;-70
2024/02/06 00:20:29;;;;;;;5.00;2.28;;;7.40;92.30;;;;;;5084540;28;20016;-70
2024/02/06 00:22:54;;;;;;;10.10;2.63;;;7.50;92.20;;;;;;5084586;28;20043;-71
2024/02/06 00:25:20;;;;;;;6.55;1.65;;;;;;;;;;5084880;28;20035;-71
2024/02/06 00:27:46;;;;;;;10.32;2.03;;;;;;;;;;5084867;28;20027;-71
2024/02/06 00:30:12;;;;;;;6.80;2.03;;;7.50;90.00;;;;;;5084601;28;20036;-71
2024/02/06 00:32:38;;;;;;;6.07;2.00;;;7.80;88.60;;;;;;5083910;28;20267;-71
2024/02/06 00:35:04;;;;;;;4.72;1.52;;;7.60;91.60;;;;;;5084209;28;20055;-71
2024/02/06 00:37:32;;;;;;;10.45;2.10;;;7.70;91.60;;;;;;5084776;28;20020;-71
2024/02/06 00:39:58;;;;;;;3.13;1.65;;;7.80;84.60;;;;;;5083096;28;20082;-71
2024/02/06 00:42:23;;;;;;;8.85;2.15;;;7.70;91.10;;;;;;5084051;28;20020;-71
2024/02/06 00:44:50;;;;;;;6.57;1.73;;;;;;;;;;5083896;28;20331;-71
2024/02/06 00:47:16;;;;;;;12.63;2.15;;;;;;;;;;5084116;28;20105;-71
2024/02/06 00:49:45;;;;;;;4.63;1.77;;;7.90;90.30;;;;;;5083728;28;20174;-71
2024/02/06 00:52:11;;;;;;;;;;;7.80;71.80;;;;;;5084121;28;20066;-71
2024/02/06 00:54:37;;;;;;;7.00;1.30;;;7.90;74.50;;;;;;5083980;28;19908;-72
2024/02/06 00:57:03;;;;;;;5.50;1.50;;;8.00;83.00;;;;;;5083835;28;20036;-72
2024/02/06 00:59:29;;;;;;;4.78;1.70;;;;;;;;;;5083640;28;20039;-72
2024/02/06 01:01:55;;;;;;;5.38;1.80;;;8.20;88.70;;;;;;5083612;28;20046;-71
2024/02/06 01:04:21;;;;;;;6.78;2.45;;;;;;;;;;5082645;28;20024;-72
2024/02/06 01:06:48;;;;;;;12.10;2.47;;;8.00;87.70;;;;;;5083496;28;20020;-72
2024/02/06 01:09:14;;;;;;;8.38;2.15;;;;;;;;;;5083699;28;20208;-72
2024/02/06 01:11:40;;;;;;;6.50;2.42;;;8.00;86.50;;;;;;5083433;28;20032;-72
2024/02/06 01:14:06;;;;;;;4.82;2.08;;;8.10;86.20;;;;;;5083458;28;20032;-71
2024/02/06 01:16:31;;;;;;;5.13;1.75;;;8.20;81.70;;;;;;5083669;28;20021;-72
2024/02/06 01:18:57;;;;;;;4.00;1.65;;;8.50;85.80;;;;;;5083397;28;20066;-71
2024/02/06 01:21:22;;;;;;;8.50;1.95;;;8.00;85.20;;;;;;5083160;28;20263;-72
2024/02/06 01:23:48;;;;;;;7.70;1.70;;;;;;;;;;5082003;28;20025;-72
2024/02/06 01:26:14;;;;;;;4.38;1.67;;;8.00;78.50;;;;;;5083131;28;20115;-71
2024/02/06 01:28:40;;;;;;;3.30;1.70;;;8.60;84.70;;;;;;5083280;28;20051;-71
2024/02/06 01:31:05;;;;;;;12.65;1.77;;;8.40;83.70;;;;;;5083114;28;20039;-72
2024/02/06 01:33:32;;;;;;;6.10;1.65;;;;;;;;;;5082892;28;20348;-72
2024/02/06 01:35:57;;;;;;;7.70;1.75;;;8.80;83.10;;;;;;5083047;28;20044;-71
2024/02/06 01:38:23;;;;;;;5.05;1.80;;;8.60;81.90;;;;;;5082941;28;20324;-72
2024/02/06 01:40:49;;;;;;;6.40;1.80;;;;;;;;;;5103372;28;20035;-72
2024/02/06 01:43:15;;;;;;;4.55;1.85;;;8.60;81.70;;;;;;5103243;28;20016;-72
2024/02/06 01:45:41;;;;;;;6.47;2.05;;;8.90;69.80;;;;;;5103072;28;20208;-71
2024/02/06 01:48:09;;;;;;;5.95;2.00;;;8.80;81.30;;;;;;5103138;28;20050;-72
2024/02/06 01:50:36;;;;;;;9.63;2.15;;;8.70;61.40;;;;;;5102946;28;20039;-72
2024/02/06 01:53:03;;;;;;;8.88;1.60;;;9.00;80.40;;;;;;5103074;28;20062;-72
2024/02/06 01:55:29;;;;;;;5.13;1.83;;;8.90;62.80;;;;;;5103083;28;20056;-72
2024/02/06 01:57:55;;;;;;;10.23;2.10;;;8.90;59.40;;;;;;5101570;28;20048;-73
2024/02/06 02:00:21;;;;;;;3.45;1.17;;;9.10;77.70;;;;;;5102736;28;20334;-71
2024/02/06 02:02:48;;;;;;;6.80;1.83;;;9.00;78.00;;;;;;5102727;28;20028;-71
2024/02/06 02:05:15;;;;;;;5.28;1.50;;;9.10;76.60;;;;;;5102767;28;20069;-71
2024/02/06 02:07:41;;;;;;;4.28;1.35;;;9.40;74.90;;;;;;5102730;28;20332;-71
2024/02/06 02:10:07;;;;;;;3.15;1.17;;;9.70;74.10;;;;;;5102419;28;20043;-72
2024/02/06 02:12:35;;;;;;;7.45;1.90;;;;;;;;;;5101685;28;20401;-71
2024/02/06 02:15:05;;;;;;;2.72;1.75;;;10.30;52.40;;;;;;5095064;28;20077;-74
2024/02/06 02:17:31;;;;;;;4.22;1.38;;;10.50;67.00;;;;;;5102492;28;20020;-74
2024/02/06 02:19:56;;;;;;;6.47;1.73;;;10.90;68.80;;;;;;5102326;28;20039;-72
2024/02/06 02:22:22;;;;;;;4.40;1.40;;;11.10;67.10;;;;;;5102447;28;20051;-72
2024/02/06 02:24:52;;;;;;;2.92;1.20;;;11.30;48.10;;;;;;5102339;28;20102;-75
2024/02/06 02:27:18;;;;;;;3.50;1.58;;;11.50;65.80;;;;;;5100983;28;20020;-74
2024/02/06 02:29:45;;;;;;;8.23;2.70;;;11.60;65.40;;;;;;5102028;28;20211;-73
2024/02/06 02:32:12;;;;;;;3.00;1.00;;;11.70;46.50;;;;;;5101846;28;20352;-73
2024/02/06 02:34:38;;;;;;;4.97;1.40;;;11.80;64.00;;;;;;5102117;28;20024;-73
2024/02/06 02:37:03;;;;;;;5.68;1.33;;;11.80;48.00;;;;;;5102203;28;20066;-74
2024/02/06 02:39:30;;;;;;;7.85;1.55;;;12.20;63.50;;;;;;5102253;28;20238;-73
2024/02/06 02:41:55;;;;;;;5.55;1.40;;;11.80;63.60;;;;;;5101938;28;20614;-74
2024/02/06 02:44:21;;;;;;;4.22;1.63;;;;;;;;;;5102096;28;20024;-74
2024/02/06 02:46:47;;;;;;;3.17;1.20;;;12.20;63.00;;;;;;5102062;28;20026;-72
2024/02/06 02:49:13;;;;;;;2.63;1.00;;;11.90;62.40;;;;;;5101807;28;20020;-73
2024/02/06 02:51:39;;;;;;;3.75;1.13;;;12.00;56.90;;;;;;5101685;28;20046;-72
2024/02/06 02:54:05;;;;;;;7.93;1.90;;;12.00;62.30;;;;;;5101804;28;20052;-72
2024/02/06 02:56:31;;;;;;;7.93;1.60;;;12.10;63.00;;;;;;5102009;28;20054;-72
2024/02/06 02:58:57;;;;;;;6.30;1.65;;;11.80;61.30;;;;;;5102023;28;20024;-73
2024/02/06 03:01:22;;;;;;;3.35;1.88;;;11.50;62.80;;;;;;5101663;28;20062;-73
2024/02/06 03:03:48;;;;;;;9.18;2.55;;;11.60;62.90;;;;;;5101698;28;20016;-74
2024/02/06 03:06:20;;;;;;;3.35;0.93;;;11.80;63.10;;;;;;5101717;28;20031;-74
2024/02/06 03:08:46;;;;;;;4.20;1.45;;;;;;;;;;5101809;28;20031;-74
2024/02/06 03:11:12;;;;;;;8.38;1.58;;;11.50;63.70;;;;;;5100163;28;20377;-72
2024/02/06 03:13:41;;;;;;;5.72;1.30;;;11.30;63.20;;;;;;5101379;28;20012;-72
2024/02/06 03:16:07;;;;;;;;;;;11.40;46.30;;;;;;5101912;28;20023;-72
2024/02/06 03:18:32;;;;;;;7.28;2.22;;;11.30;64.00;;;;;;5101651;28;19899;-72
2024/02/06 03:20:58;;;;;;;5.85;1.77;;;11.10;63.80;;;;;;5101492;28;20243;-72
2024/02/06 03:23:24;;;;;;;4.93;1.30;;;11.00;62.20;;;;;;5101507;28;20027;-71
2024/02/06 03:25:50;;;;;;;4.25;1.40;;;11.40;64.50;;;;;;5101085;28;20024;-71
2024/02/06 03:28:17;;;;;;;7.05;1.60;;;10.90;46.90;;;;;;5100829;28;20032;-71
2024/02/06 03:30:43;;;;;;;7.15;2.58;;;10.70;64.80;;;;;;5101255;28;20111;-71
2024/02/06 03:33:09;;;;;;;1.98;1.38;;;10.80;65.50;;;;;;5101040;28;20051;-71
2024/02/06 03:35:35;;;;;;;4.53;1.25;;;10.60;65.70;;;;;;5101264;28;20024;-71
2024/02/06 03:38:01;;;;;;;2.55;1.00;;;10.40;65.70;;;;;;5101363;28;20031;-71
2024/02/06 03:40:27;;;;;;;6.72;1.55;;;;;;;;;;5101363;28;20073;-72
2024/02/06 03:42:53;;;;;;;5.07;1.67;;;10.50;53.20;;;;;;5101277;28;20058;-72
2024/02/06 03:45:19;;;;;;;4.50;1.52;;;10.30;65.30;;;;;;5101006;28;20019;-72
2024/02/06 03:47:45;;;;;;;3.03;1.30;;;10.40;65.90;;;;;;5101006;28;20319;-72
2024/02/06 03:50:10;;;;;;;6.38;1.60;;;10.30;65.80;;;;;;5100801;28;20036;-72
2024/02/06 03:52:36;;;;;;;4.18;1.33;;;10.30;66.10;;;;;;5101185;28;20024;-72
2024/02/06 03:55:02;;;;;;;9.40;2.83;;;10.40;66.50;;;;;;5100877;28;20403;-72
2024/02/06 03:57:28;;;;;;;3.20;1.30;;;;;;;;;;5100928;28;20028;-72
2024/02/06 03:59:54;;;;;;;5.55;1.48;;;9.80;65.20;;;;;;5100887;28;20016;-71
2024/02/06 04:02:21;;;;;;;4.93;1.42;;;10.10;68.10;;;;;;5101165;28;20121;-72
2024/02/06 04:04:47;;;;;;;4.40;2.25;;;9.60;68.40;;;;;;5100990;28;20050;-72
2024/02/06 04:07:14;;;;;;;4.50;1.42;;;;;;;;;;5090702;28;20036;-72
2024/02/06 04:09:39;;;;;;;5.05;1.40;;;9.30;69.30;;;;;;5100807;28;20323;-72
2024/02/06 04:12:05;;;;;;;4.82;1.40;;;9.50;70.00;;;;;;5101016;28;20028;-71
2024/02/06 04:14:32;;;;;;;6.43;1.88;;;;;;;;;;5099525;28;20038;-72
2024/02/06 04:16:58;;;;;;;7.18;3.25;;;;;;;;;;5100929;28;20027;-70
2024/02/06 04:19:24;;;;;;;4.07;1.63;;;8.90;71.00;;;;;;5100734;28;20043;-71
2024/02/06 04:21:51;;;;;;;6.97;1.75;;;8.70;71.20;;;;;;5091786;28;20225;-74
2024/02/06 04:24:17;;;;;;;3.45;1.42;;;8.80;60.40;;;;;;5080558;28;20091;-73
2024/02/06 04:26:43;;;;;;;4.32;1.50;;;8.40;72.00;;;;;;5080556;28;20028;-74
2024/02/06 04:29:09;;;;;;;3.53;1.90;;;;;;;;;;5080176;28;20048;-74
2024/02/06 04:31:35;;;;;;;6.15;1.75;;;8.50;72.60;;;;;;5080179;28;20084;-72
2024/02/06 04:34:01;;;;;;;5.28;1.77;;;8.50;72.30;;;;;;5078824;28;20351;-72
2024/02/06 04:36:27;;;;;;;4.32;2.00;;;;;;;;;;5080122;28;20037;-73
2024/02/06 04:38:52;;;;;;;3.05;2.15;;;9.20;69.90;;;;;;5079607;28;20012;-73
2024/02/06 04:41:18;;;;;;;4.45;2.05;;;9.40;62.10;;;;;;5084093;28;20078;-72
2024/02/06 04:43:44;;;;;;;5.25;2.70;;;;;;;;;;5083852;28;20404;-73
2024/02/06 04:46:10;;;;;;;8.18;2.78;;;9.80;67.50;;;;;;5083898;28;20374;-74
2024/02/06 04:48:36;;;;;;;4.72;2.58;;;;;;;;;;5083964;28;20013;-73
2024/02/06 04:51:01;;;;;;;5.65;1.92;;;10.10;66.60;;;;;;5083615;28;20404;-72
2024/02/06 04:53:28;;;;;;;9.25;3.97;;;10.10;60.90;;;;;;5083959;28;20071;-73
2024/02/06 04:55:54;;;;;;;8.48;2.50;;;;;;;;;;5083644;28;20114;-73
2024/02/06 04:58:20;;;;;;;8.45;2.35;;;;;;;;;;5083596;28;20020;-72
2024/02/06 05:00:45;;;;;;;3.75;2.33;;;9.80;67.30;;;;;;5083849;28;20023;-73
2024/02/06 05:03:11;;;;;;;10.57;4.43;;;9.70;67.80;;;;;;5083562;28;20044;-72
2024/02/06 05:05:37;;;;;;;5.60;2.70;;;9.30;68.20;;;;;;5083525;28;20318;-73
2024/02/06 05:08:03;;;;;;;6.10;2.83;;;9.40;68.10;;;;;;5083706;28;20025;-73
2024/02/06 05:10:29;;;;;;;4.05;2.45;;;;;;;;;;5083330;28;20051;-73
2024/02/06 05:12:55;;;;;;;6.38;2.78;;;9.20;60.50;;;;;;5083582;28;20063;-75
2024/02/06 05:15:21;;;;;;;6.55;2.63;;;9.60;69.20;;;;;;5083806;28;20024;-72
2024/02/06 05:17:46;;;;;;;7.88;2.80;;;9.10;69.70;;;;;;5083607;28;20017;-73
2024/02/06 05:20:12;;;;;;;11.95;3.10;;;;;;;;;;5083751;28;20031;-73
2024/02/06 05:22:38;;;;;;;6.80;2.83;;;9.00;70.00;;;;;;5083518;28;20028;-74
2024/02/06 05:25:05;;;;;;;5.93;2.63;;;8.70;53.30;;;;;;5083389;28;20109;-72
2024/02/06 05:27:31;;;;;;;5.43;2.45;;;;;;;;;;5081972;28;20316;-71
2024/02/06 05:29:57;;;;;;;9.00;2.30;;;8.90;71.10;;;;;;5083567;28;20078;-71
2024/02/06 05:32:23;;;;;;;5.82;2.67;;;;;;;;;;5083045;28;20273;-71
2024/02/06 05:34:50;;;;;;;14.30;2.78;;;8.80;70.00;;;;;;5081740;28;20062;-72
2024/02/06 05:37:17;;;;;;;9.45;2.88;;;8.90;70.20;;;;;;5082843;28;20088;-71
2024/02/06 05:39:46;;;;;;;12.55;2.70;;;8.90;51.30;;;;;;5083184;28;20028;-71
2024/02/06 05:42:12;;;;;;;9.23;3.47;;;8.70;70.60;;;;;;5073810;28;20021;-71
2024/02/06 05:44:38;;;;;;;4.38;2.78;;;8.50;71.00;;;;;;5082825;28;20095;-71
2024/02/06 05:47:04;;;;;;;5.05;2.38;;;8.70;52.00;;;;;;5082857;28;20036;-70
2024/02/06 05:49:30;;;;;;;8.57;3.03;;;8.60;57.40;;;;;;5077255;28;20028;-70
2024/02/06 05:51:56;;;;;;;6.18;2.92;;;;;;;;;;5081416;28;20356;-71
2024/02/06 05:54:21;;;;;;;5.07;2.72;;;8.70;71.10;;;;;;5082230;28;20024;-71
2024/02/06 05:56:48;;;;;;;7.80;3.42;;;9.10;70.80;;;;;;5082885;28;20268;-71
2024/02/06 05:59:13;;;;;;;8.70;2.97;;;8.90;70.70;;;;;;5082782;28;20078;-70
2024/02/06 06:01:39;;;;;;;4.50;2.67;;;8.80;71.40;;;;;;5081372;28;20055;-71
2024/02/06 06:04:05;;;;;;;6.15;3.25;;;;;;;;;;5082529;28;20059;-68
2024/02/06 06:06:31;;;;;;;9.43;3.83;;;;;;;;;;5080165;28;20024;-68
2024/02/06 06:08:57;;;;;;;8.52;3.72;;;8.30;72.20;;;;;;5078171;28;20284;-69
2024/02/06 06:11:22;;;;;;;7.53;3.60;;;8.30;73.30;;;;;;5082125;28;20028;-69
2024/02/06 06:13:48;;;;;;;7.25;4.50;;;8.40;74.40;;;;;;5080956;28;20016;-69
2024/02/06 06:16:13;;;;;;;12.60;4.15;;;7.90;74.10;;;;;;5082372;28;20099;-68
2024/02/06 06:18:39;;;;;;;12.82;4.05;;;7.80;62.50;;;;;;5082086;28;20032;-69
2024/02/06 06:21:06;;;;;;;7.72;3.83;;;7.60;74.70;;;;;;5082328;28;20024;-69
2024/02/06 06:23:32;;;;;;;11.80;4.78;;;;;;;;;;5081848;28;20025;-69
2024/02/06 06:25:57;;;;;;;11.35;5.22;;;7.80;75.30;;;;;;5080860;28;20388;-68
2024/02/06 06:28:23;;;;;;;7.63;3.65;;;7.60;75.90;;;;;;5082068;28;20071;-68
2024/02/06 06:30:49;;;;;;;11.43;4.57;;;7.50;75.70;;;;;;5081972;28;20051;-70
2024/02/06 06:33:15;;;;;;;15.98;5.68;;;7.50;63.10;;;;;;5081744;28;20052;-68
2024/02/06 06:35:40;;;;;;;15.52;7.03;;;7.40;65.70;;;;;;5082073;28;20028;-67
2024/02/06 06:38:06;;;;;;;7.28;3.92;;;;;;;;;;5071501;28;20702;-67
2024/02/06 06:40:32;;;;;;;13.25;4.90;;;;;;;;;;5061822;28;20041;-67
2024/02/06 06:42:58;;;;;;;13.18;4.90;;;;;;;;;;5061850;28;20088;-67
2024/02/06 06:45:24;;;;;;;9.90;5.35;;;7.30;78.80;;;;;;5069475;28;20031;-67
2024/02/06 06:47:50;;;;;;;11.02;4.88;;;;;;;;;;5082029;28;20025;-66
2024/02/06 06:50:16;;;;;;;8.63;4.45;;;7.20;78.90;;;;;;5081894;28;20095;-67
2024/02/06 06:52:42;;;;;;;21.20;6.40;;;7.10;58.40;;;;;;5081055;28;20619;-67
2024/02/06 06:55:08;;;;;;;9.68;4.80;;;7.20;58.20;;;;;;5081452;28;20032;-67
2024/02/06 06:57:35;;;;;;;9.48;5.18;;;7.20;79.00;;;;;;5081477;28;20082;-67
2024/02/06 07:00:02;;;;;;;10.98;5.93;;;7.20;76.40;;;;;;5081575;28;20036;-67
2024/02/06 07:02:28;;;;;;;11.57;5.18;;;;;;;;;;5080773;28;20024;-67
2024/02/06 07:04:56;;;;;;;11.52;5.63;;;7.50;68.90;;;;;;5081469;28;20044;-67
2024/02/06 07:07:22;;;;;;;11.35;4.88;;;;;;;;;;5080939;28;20126;-70
2024/02/06 07:09:48;;;;;;;8.20;4.47;;;;;;;;;;5080236;28;20036;-67
2024/02/06 07:12:13;;;;;;;11.57;5.65;;;7.90;77.80;;;;;;5071936;28;20103;-67
2024/02/06 07:14:39;;;;;;;15.30;5.88;;;;;;;;;;5080807;28;20025;-67
2024/02/06 07:17:05;;;;;;;22.50;8.43;;;7.90;68.50;;;;;;5081309;28;20026;-67
2024/02/06 07:19:32;;;;;;;26.40;12.40;;;7.90;67.60;;;;;;5081136;28;20265;-70
2024/02/06 07:21:58;;;;;;;23.40;10.52;;;7.90;57.30;;;;;;5081088;28;20083;-69
2024/02/06 07:24:24;;;;;;;26.98;12.25;;;8.00;57.50;;;;;;5081252;28;20016;-69
2024/02/06 07:26:51;;;;;;;22.92;9.18;;;8.20;71.20;;;;;;5081104;28;20320;-70
2024/02/06 07:29:17;;;;;;;18.80;9.38;;;8.30;72.20;;;;;;5081068;28;20028;-69
2024/02/06 07:31:43;;;;;;;14.88;8.00;;;8.20;65.70;;;;;;5081132;28;20035;-70
2024/02/06 07:34:08;;;;;;;16.33;8.02;;;8.30;64.70;;;;;;5080917;28;20056;-70
2024/02/06 07:36:34;;;;;;;14.45;7.90;;;8.50;76.40;;;;;;5081104;28;20275;-70
2024/02/06 07:38:59;;;;;;;15.82;6.93;;;8.90;76.30;;;;;;5081179;28;20013;-70
2024/02/06 07:41:25;;;;;;;14.45;7.32;;;8.90;75.90;;;;;;5081006;28;20020;-70
2024/02/06 07:43:51;;;;;;;15.20;7.45;;;;;;;;;;5081152;28;20205;-70
2024/02/06 07:46:18;;;;;;;16.42;6.30;;;9.00;76.00;;;;;;5080649;28;20279;-70
2024/02/06 07:48:44;;;;;;;12.23;6.45;;;9.00;75.90;;;;;;5080852;28;20035;-70
2024/02/06 07:51:11;;;;;;;10.55;6.90;;;9.10;75.90;;;;;;5081009;28;20029;-70
2024/02/06 07:53:37;;;;;;;14.43;6.43;;;9.40;75.50;;;;;;5080857;28;20028;-70
2024/02/06 07:56:04;;;;;;;16.73;7.18;;;9.10;75.30;;;;;;5080762;28;20016;-70
2024/02/06 07:58:30;;;;;;;13.70;7.20;;;9.40;75.70;;;;;;5080930;28;20308;-70
2024/02/06 08:00:57;;;;;;;16.58;7.85;;;9.40;75.80;;;;;;5080867;28;20024;-70
2024/02/06 08:03:22;;;;;;;13.00;7.88;;;9.40;75.30;;;;;;5080835;28;20283;-70
2024/02/06 08:05:48;;;;;;;16.45;8.10;;;;;;;;;;5080979;28;20025;-70
2024/02/06 08:08:14;;;;;;;13.85;7.95;;;9.80;62.80;;;;;;5080828;28;20024;-70
2024/02/06 08:10:40;;;;;;;19.85;8.77;;;9.70;66.90;;;;;;5100815;28;20320;-70
2024/02/06 08:13:06;;;;;;;17.13;8.95;;;9.80;75.80;;;;;;5101021;28;20020;-70
2024/02/06 08:15:31;;;;;;;13.70;8.40;;;9.90;75.90;;;;;;5104250;28;20020;-70
2024/02/06 08:17:59;;;;;;;11.77;7.68;;;;;;;;;;5104613;28;20024;-70
2024/02/06 08:20:25;;;;;;;17.05;8.88;;;;;;;;;;5104890;28;20016;-71
2024/02/06 08:22:51;;;;;;;12.93;8.18;;;;;;;;;;5092155;28;20020;-71
2024/02/06 08:25:23;;;;;;;17.30;8.85;;;10.00;76.30;;;;;;5073190;28;20017;-71
2024/02/06 08:27:49;;;;;;;15.38;8.45;;;;;;;;;;5064305;28;20028;-71
2024/02/06 08:30:15;;;;;;;17.42;8.85;;;10.20;58.20;;;;;;5064459;28;20086;-71
2024/02/06 08:32:40;;;;;;;17.10;8.30;;;10.30;76.70;;;;;;5064280;28;20040;-71
2024/02/06 08:35:06;;;;;;;20.25;10.30;;;10.50;76.90;;;;;;5064368;28;20247;-71
2024/02/06 08:37:33;;;;;;;18.42;9.70;;;10.20;77.20;;;;;;5064153;28;20416;-71
2024/02/06 08:40:06;;;;;;;16.83;9.88;;;10.30;59.20;;;;;;5064348;28;20082;-70
2024/02/06 08:42:33;;;;;;;18.83;9.77;;;10.50;77.80;;;;;;5064047;28;20209;-71
2024/02/06 08:44:59;;;;;;;16.60;10.25;;;;;;;;;;5067226;28;20028;-71
2024/02/06 08:47:27;;;;;;;16.25;9.77;;;;;;;;;;5080361;28;20032;-70
2024/02/06 08:49:53;;;;;;;22.00;10.82;;;10.80;76.70;;;;;;5083879;28;20208;-71
2024/02/06 08:52:18;;;;;;;16.92;10.48;;;11.20;76.60;;;;;;5077451;28;20063;-71
2024/02/06 08:54:44;;;;;;;16.80;10.20;;;;;;;;;;5080946;28;20398;-70
2024/02/06 08:57:10;;;;;;;20.50;10.65;;;;;;;;;;5070455;28;20244;-70
2024/02/06 08:59:36;;;;;;;17.00;9.65;;;11.20;72.40;;;;;;5063400;28;20025;-71
2024/02/06 09:02:02;;;;;;;22.55;10.48;;;11.10;75.70;;;;;;5066111;28;20333;-71
2024/02/06 09:04:29;;;;;;;18.50;10.10;;;11.20;76.00;;;;;;5068212;28;20032;-71
2024/02/06 09:06:55;;;;;;;16.58;9.90;;;11.00;75.80;;;;;;5063308;28;20023;-70
2024/02/06 09:09:22;;;;;;;15.68;9.68;;;;;;;;;;5068007;28;20082;-71
2024/02/06 09:11:48;;;;;;;18.13;10.90;;;11.00;76.10;;;;;;5082158;28;20052;-71
2024/02/06 09:14:14;;;;;;;17.45;10.05;;;11.00;76.50;;;;;;5082906;28;20024;-71
2024/02/06 09:16:39;;;;;;;27.63;11.65;;;11.20;76.10;;;;;;5082593;28;20054;-71
2024/02/06 09:19:07;;;;;;;19.85;12.20;;;11.80;76.70;;;;;;5082376;28;20030;-71
2024/02/06 09:21:33;;;;;;;23.38;13.43;;;11.60;76.40;;;;;;5082961;28;20047;-71
2024/02/06 09:23:59;;;;;;;25.20;13.48;;;11.90;76.40;;;;;;5082967;28;20020;-71
2024/02/06 09:26:24;;;;;;;19.80;10.60;;;11.70;75.80;;;;;;5081986;28;20307;-71
2024/02/06 09:28:50;;;;;;;18.33;11.73;;;11.90;76.30;;;;;;5083066;28;20046;-71
2024/02/06 09:31:16;;;;;;;18.67;11.73;;;11.70;76.30;;;;;;5082718;28;20090;-71
2024/02/06 09:33:42;;;;;;;17.27;11.13;;;11.80;58.70;;;;;;5082591;28;20056;-71
2024/02/06 09:36:08;;;;;;;19.40;12.25;;;11.90;76.80;;;;;;5082782;28;20414;-71
2024/02/06 09:38:35;;;;;;;17.42;11.40;;;11.90;77.00;;;;;;5082474;28;20047;-71
2024/02/06 09:41:01;;;;;;;19.08;12.02;;;12.00;76.70;;;;;;5082652;28;20091;-71
2024/02/06 09:43:28;;;;;;;18.23;10.30;;;12.00;76.70;;;;;;5083042;28;20328;-71
2024/02/06 09:45:54;;;;;;;16.13;10.50;;;12.20;76.50;;;;;;5082890;28;20024;-71
2024/02/06 09:48:24;;;;;;;15.65;9.80;;;12.10;75.90;;;;;;5082916;28;20148;-71
2024/02/06 09:50:54;;;;;;;16.70;10.20;;;12.30;75.40;;;;;;5082629;28;20040;-71
2024/02/06 09:53:22;;;;;;;14.52;8.80;;;12.30;74.70;;;;;;5082819;28;20088;-70
2024/02/06 09:55:48;;;;;;;13.50;7.60;;;12.60;73.90;;;;;;5082839;28;20055;-71
2024/02/06 09:58:15;;;;;;;12.05;6.50;;;12.60;72.60;;;;;;5082621;28;20524;-71
2024/02/06 10:00:43;;;;;;;9.23;6.10;;;12.90;72.00;;;;;;5081234;28;20052;-71
2024/02/06 10:03:20;;;;;;;18.55;7.75;;;13.00;70.90;;;;;;5082385;28;20113;-71
2024/02/06 10:05:49;;;;;;;13.07;7.40;;;13.10;69.90;;;;;;5080994;28;20205;-73
2024/02/06 10:08:16;;;;;;;14.63;8.05;;;13.40;57.30;;;;;;5081375;28;20024;-71
2024/02/06 10:10:45;;;;;;;13.02;8.98;;;13.50;52.90;;;;;;5081807;28;20344;-72
2024/02/06 10:13:11;;;;;;;;;;;13.50;53.30;;;;;;5079910;28;20078;-71
2024/02/06 10:15:37;;;;;;;15.10;6.63;;;13.70;68.90;;;;;;5082064;28;19908;-71
2024/02/06 10:18:04;;;;;;;20.48;9.75;;;13.70;67.50;;;;;;5081720;28;20031;-71
2024/02/06 10:20:30;;;;;;;18.65;9.52;;;;;;;;;;5082099;28;20059;-71
2024/02/06 10:22:56;;;;;;;14.35;8.07;;;14.00;52.00;;;;;;5082021;28;20029;-70
2024/02/06 10:25:22;;;;;;;12.73;7.60;;;14.10;68.70;;;;;;5082088;28;20020;-71
2024/02/06 10:27:56;;;;;;;11.15;7.28;;;14.20;68.00;;;;;;5082340;28;20020;-71
2024/02/06 10:30:23;;;;;;;12.07;7.82;;;14.30;67.50;;;;;;5081941;28;20043;-70
2024/02/06 10:32:51;;;;;;;14.93;7.28;;;14.30;67.00;;;;;;5081852;28;20048;-70
2024/02/06 10:35:22;;;;;;;12.32;7.90;;;14.60;67.30;;;;;;5081959;28;20348;-71
2024/02/06 10:37:48;;;;;;;13.48;7.82;;;14.70;67.50;;;;;;5081671;28;20043;-71
2024/02/06 10:40:15;;;;;;;14.23;7.93;;;14.70;67.20;;;;;;5081751;28;20017;-71
2024/02/06 10:42:41;;;;;;;13.50;7.38;;;14.80;67.40;;;;;;5081761;28;20336;-71
2024/02/06 10:45:08;;;;;;;12.18;6.38;;;14.90;67.00;;;;;;5081649;28;20024;-71
2024/02/06 10:47:34;;;;;;;12.10;6.57;;;15.00;66.40;;;;;;5081697;28;20021;-71
2024/02/06 10:50:05;;;;;;;13.50;7.63;;;15.30;66.60;;;;;;5080772;28;20017;-71
2024/02/06 10:52:32;;;;;;;16.80;10.20;;;15.30;66.40;;;;;;5075394;28;20070;-71
2024/02/06 10:54:57;;;;;;;19.73;9.00;;;15.50;66.90;;;;;;5061387;28;20048;-71
2024/02/06 10:57:31;;;;;;;7.15;2.60;;;15.60;65.10;;;;;;5061277;28;20088;-71
2024/02/06 11:00:07;;;;;;;2.03;1.27;;;15.70;58.30;;;;;;5061139;28;20028;-71
2024/02/06 11:02:34;;;;;;;4.03;1.70;;;16.20;50.30;;;;;;5061529;28;20193;-71
2024/02/06 11:05:24;;;;;;;2.55;1.58;;;16.30;55.20;;;;;;5061556;28;20028;-71
2024/02/06 11:08:22;;;;;;;3.67;2.05;;;16.50;54.50;;;;;;5061660;28;20020;-72
2024/02/06 11:10:56;;;;;;;5.25;1.63;;;16.60;53.80;;;;;;5061063;28;20249;-71
2024/02/06 11:13:30;;;;;;;5.25;2.13;;;16.60;50.20;;;;;;5065307;28;20217;-71
2024/02/06 11:16:02;;;;;;;4.80;1.30;;;16.70;54.30;;;;;;5081349;28;20024;-71
2024/02/06 11:18:35;;;;;;;4.07;1.73;;;16.70;54.40;;;;;;5080182;28;20331;-70
2024/02/06 11:21:04;;;;;;;6.97;2.08;;;16.60;54.90;;;;;;5081311;28;20190;-71
2024/02/06 11:23:30;;;;;;;2.83;1.73;;;16.80;39.90;;;;;;5080928;28;20023;-71
2024/02/06 11:25:56;;;;;;;5.82;1.60;;;16.90;39.80;;;;;;5081143;28;20013;-71
2024/02/06 11:28:23;;;;;;;5.00;2.33;;;16.80;54.30;;;;;;5081042;28;20078;-71
2024/02/06 11:30:59;;;;;;;3.97;1.98;;;16.90;54.00;;;;;;5081022;28;20421;-71
2024/02/06 11:33:30;;;;;;;2.83;1.70;;;17.00;53.70;;;;;;5081003;28;20120;-70
2024/02/06 11:36:16;;;;;;;4.85;1.27;;;16.90;54.60;;;;;;5081065;28;20032;-70
2024/02/06 11:38:43;;;;;;;2.92;2.17;;;17.10;54.50;;;;;;5079934;28;20028;-71
2024/02/06 11:41:13;;;;;;;3.58;2.33;;;17.10;53.90;;;;;;5079739;28;20046;-71
2024/02/06 11:43:38;;;;;;;4.70;2.67;;;17.40;54.30;;;;;;5081090;28;20079;-71
2024/02/06 11:46:04;;;;;;;3.80;2.47;;;17.30;53.70;;;;;;5080965;28;20540;-71
2024/02/06 11:48:30;;;;;;;8.27;2.42;;;17.40;54.20;;;;;;5080279;28;20029;-71
2024/02/06 11:50:56;;;;;;;4.03;2.83;;;17.40;54.30;;;;;;5080708;28;20042;-71
2024/02/06 11:53:26;;;;;;;6.35;2.15;;;17.20;54.30;;;;;;5080649;28;20084;-71
2024/02/06 11:55:57;;;;;;;9.13;1.70;;;17.50;53.70;;;;;;5080720;28;20020;-71
2024/02/06 11:58:24;;;;;;;3.83;1.73;;;17.40;53.20;;;;;;5080741;28;20086;-71
2024/02/06 12:00:52;;;;;;;4.63;1.85;;;17.20;53.70;;;;;;5080627;28;20028;-71
2024/02/06 12:03:17;;;;;;;5.80;1.73;;;17.00;54.00;;;;;;5080627;28;20356;-71
2024/02/06 12:05:44;;;;;;;6.55;2.20;;;16.80;54.40;;;;;;5080491;28;20028;-71
2024/02/06 12:08:12;;;;;;;3.55;2.08;;;17.00;54.80;;;;;;5080595;28;20095;-70
2024/02/06 12:10:38;;;;;;;4.90;2.53;;;17.30;55.10;;;;;;5080536;28;20024;-71
2024/02/06 12:13:14;;;;;;;6.32;1.90;;;16.90;54.90;;;;;;5080802;28;20063;-71
2024/02/06 12:15:41;;;;;;;3.10;1.73;;;17.00;39.80;;;;;;5080746;28;20035;-71
2024/02/06 12:18:10;;;;;;;3.50;1.90;;;17.10;44.10;;;;;;5080436;28;20029;-71
2024/02/06 12:20:35;;;;;;;5.78;2.20;;;17.10;40.40;;;;;;5080506;28;20070;-71
2024/02/06 12:23:03;;;;;;;4.07;1.77;;;17.10;54.40;;;;;;5080629;28;20025;-71
2024/02/06 12:25:48;;;;;;;3.95;2.08;;;17.20;54.60;;;;;;5080461;28;20031;-70
2024/02/06 12:28:15;;;;;;;1.75;1.27;;;17.30;39.80;;;;;;5080667;28;20028;-71
2024/02/06 12:30:42;;;;;;;3.03;1.55;;;17.40;54.60;;;;;;5080334;28;20271;-71
2024/02/06 12:33:08;;;;;;;3.92;1.60;;;17.70;54.40;;;;;;5080335;28;20121;-71
2024/02/06 12:35:35;;;;;;;5.05;1.60;;;17.40;54.30;;;;;;5080613;28;20024;-70
2024/02/06 12:38:03;;;;;;;4.50;1.70;;;17.10;54.30;;;;;;5080411;28;20074;-71
2024/02/06 12:40:33;;;;;;;4.35;2.10;;;17.50;53.20;;;;;;5080396;28;20032;-71
2024/02/06 12:43:07;;;;;;;5.32;1.33;;;17.70;52.90;;;;;;5080376;28;20065;-70
2024/02/06 12:45:35;;;;;;;3.08;2.00;;;17.90;53.30;;;;;;5080328;28;20021;-71
2024/02/06 12:48:01;;;;;;;9.27;2.05;;;17.70;53.10;;;;;;5080307;28;20047;-71
2024/02/06 12:50:27;;;;;;;3.08;1.88;;;17.80;53.20;;;;;;5080174;28;20230;-71
2024/02/06 12:52:59;;;;;;;5.60;1.58;;;18.10;51.90;;;;;;5080327;28;20308;-71
2024/02/06 12:55:26;;;;;;;8.38;1.92;;;18.10;39.20;;;;;;5080161;28;20029;-71
2024/02/06 12:57:54;;;;;;;7.10;1.30;;;18.50;38.60;;;;;;5080134;28;20305;-72
2024/02/06 13:00:21;;;;;;;6.10;1.52;;;19.30;38.10;;;;;;5080074;28;20036;-72
2024/02/06 13:02:58;;;;;;;4.15;1.52;;;20.40;35.90;;;;;;5083662;28;20221;-73